Time;durP1;ratioP1;P1;durP2;ratioP2;P2;SDS_P1;SDS_P2;PMS_P1;PMS_P2;Temp;Humidity;BMP_temperature;BMP_pressure;BME280_temperature;BME280_humidity;BME280_pressure;Samples;Min_cycle;Max_cycle;Signal;HPM_P1;HPM_P2
2022/02/22 00:00:56;;;;;;;3.25;1.35;;;;;;;3.8;76.90527;94861.19;;;;
2022/02/22 00:01:57;;;;;;;3.25;1.35;;;;;;;3.8;76.90527;94861.19;;;;
2022/02/22 00:02:57;;;;;;;3.25;1.35;;;;;;;3.8;76.90527;94861.19;;;;
2022/02/22 00:03:58;;;;;;;3.25;1.35;;;;;;;3.8;76.90527;94861.19;;;;
2022/02/22 00:04:58;;;;;;;3.25;1.35;;;;;;;3.8;76.90527;94861.19;;;;
2022/02/22 00:05:59;;;;;;;3.25;1.35;;;;;;;3.8;76.90527;94861.19;;;;
2022/02/22 00:07:00;;;;;;;3.25;1.35;;;;;;;3.8;76.90527;94861.19;;;;
2022/02/22 00:08:00;;;;;;;3.25;1.35;;;;;;;3.8;76.90527;94861.19;;;;
2022/02/22 00:09:01;;;;;;;3.25;1.35;;;;;;;3.8;76.90527;94861.19;;;;
2022/02/22 00:10:02;;;;;;;2.6;1.5;;;;;;;3.56;77.02051;94870.2;;;;
2022/02/22 00:11:03;;;;;;;2.6;1.5;;;;;;;3.56;77.02051;94870.2;;;;
2022/02/22 00:12:04;;;;;;;2.6;1.5;;;;;;;3.56;77.02051;94870.2;;;;
2022/02/22 00:13:05;;;;;;;2.6;1.5;;;;;;;3.56;77.02051;94870.2;;;;
2022/02/22 00:14:06;;;;;;;2.6;1.5;;;;;;;3.56;77.02051;94870.2;;;;
2022/02/22 00:15:07;;;;;;;2.6;1.5;;;;;;;3.56;77.02051;94870.2;;;;
2022/02/22 00:16:08;;;;;;;2.6;1.5;;;;;;;3.56;77.02051;94870.2;;;;
2022/02/22 00:17:09;;;;;;;2.6;1.5;;;;;;;3.56;77.02051;94870.2;;;;
2022/02/22 00:18:09;;;;;;;2.6;1.5;;;;;;;3.56;77.02051;94870.2;;;;
2022/02/22 00:19:10;;;;;;;2.6;1.5;;;;;;;3.56;77.02051;94870.2;;;;
2022/02/22 00:20:11;;;;;;;2.6;1.5;;;;;;;3.56;77.02051;94870.2;;;;
2022/02/22 00:21:12;;;;;;;3.55;1.4;;;;;;;3.31;77.72168;94876.72;;;;
2022/02/22 00:22:13;;;;;;;3.55;1.4;;;;;;;3.31;77.72168;94876.72;;;;
2022/02/22 00:23:13;;;;;;;3.55;1.4;;;;;;;3.31;77.72168;94876.72;;;;
2022/02/22 00:24:14;;;;;;;3.55;1.4;;;;;;;3.31;77.72168;94876.72;;;;
2022/02/22 00:25:14;;;;;;;3.55;1.4;;;;;;;3.31;77.72168;94876.72;;;;
2022/02/22 00:26:15;;;;;;;3.55;1.4;;;;;;;3.31;77.72168;94876.72;;;;
2022/02/22 00:27:15;;;;;;;3.55;1.4;;;;;;;3.31;77.72168;94876.72;;;;
2022/02/22 00:28:19;;;;;;;3.55;1.4;;;;;;;3.31;77.72168;94876.72;;;;
2022/02/22 00:29:20;;;;;;;3.55;1.4;;;;;;;3.31;77.72168;94876.72;;;;
2022/02/22 00:30:21;;;;;;;3.55;1.4;;;;;;;3.31;77.72168;94876.72;;;;
2022/02/22 00:31:22;;;;;;;3.5;1.5;;;;;;;3.15;78.08105;94883.36;;;;
2022/02/22 00:32:22;;;;;;;3.5;1.5;;;;;;;3.15;78.08105;94883.36;;;;
2022/02/22 00:33:23;;;;;;;3.5;1.5;;;;;;;3.15;78.08105;94883.36;;;;
2022/02/22 00:34:24;;;;;;;3.5;1.5;;;;;;;3.15;78.08105;94883.36;;;;
2022/02/22 00:35:24;;;;;;;3.5;1.5;;;;;;;3.15;78.08105;94883.36;;;;
2022/02/22 00:36:25;;;;;;;3.5;1.5;;;;;;;3.15;78.08105;94883.36;;;;
2022/02/22 00:37:26;;;;;;;3.5;1.5;;;;;;;3.15;78.08105;94883.36;;;;
2022/02/22 00:38:26;;;;;;;3.5;1.5;;;;;;;3.15;78.08105;94883.36;;;;
2022/02/22 00:39:27;;;;;;;3.5;1.5;;;;;;;3.15;78.08105;94883.36;;;;
2022/02/22 00:40:27;;;;;;;3.5;1.5;;;;;;;3.15;78.08105;94883.36;;;;
2022/02/22 00:41:28;;;;;;;3.5;1.5;;;;;;;3.15;78.08105;94883.36;;;;
2022/02/22 00:42:28;;;;;;;2.7;1.35;;;;;;;2.8;78.4375;94896.34;;;;
2022/02/22 00:43:29;;;;;;;2.7;1.35;;;;;;;2.8;78.4375;94896.34;;;;
2022/02/22 00:44:30;;;;;;;2.7;1.35;;;;;;;2.8;78.4375;94896.34;;;;
2022/02/22 00:45:30;;;;;;;2.7;1.35;;;;;;;2.8;78.4375;94896.34;;;;
2022/02/22 00:46:31;;;;;;;2.7;1.35;;;;;;;2.8;78.4375;94896.34;;;;
2022/02/22 00:47:31;;;;;;;2.7;1.35;;;;;;;2.8;78.4375;94896.34;;;;
2022/02/22 00:48:32;;;;;;;2.7;1.35;;;;;;;2.8;78.4375;94896.34;;;;
2022/02/22 00:49:33;;;;;;;2.7;1.35;;;;;;;2.8;78.4375;94896.34;;;;
2022/02/22 00:50:34;;;;;;;2.7;1.35;;;;;;;2.8;78.4375;94896.34;;;;
2022/02/22 00:51:35;;;;;;;2.7;1.35;;;;;;;2.8;78.4375;94896.34;;;;
2022/02/22 00:52:36;;;;;;;2.750001;1.6;;;;;;;2.63;79.16211;94893.27;;;;
2022/02/22 00:53:36;;;;;;;2.750001;1.6;;;;;;;2.63;79.16211;94893.27;;;;
2022/02/22 00:54:37;;;;;;;2.750001;1.6;;;;;;;2.63;79.16211;94893.27;;;;
2022/02/22 00:55:37;;;;;;;2.750001;1.6;;;;;;;2.63;79.16211;94893.27;;;;
2022/02/22 00:56:38;;;;;;;2.750001;1.6;;;;;;;2.63;79.16211;94893.27;;;;
2022/02/22 00:57:41;;;;;;;2.750001;1.6;;;;;;;2.63;79.16211;94893.27;;;;
2022/02/22 00:58:42;;;;;;;2.750001;1.6;;;;;;;2.63;79.16211;94893.27;;;;
2022/02/22 00:59:42;;;;;;;2.750001;1.6;;;;;;;2.63;79.16211;94893.27;;;;
2022/02/22 01:00:43;;;;;;;2.750001;1.6;;;;;;;2.63;79.16211;94893.27;;;;
2022/02/22 01:01:43;;;;;;;2.750001;1.6;;;;;;;2.63;79.16211;94893.27;;;;
2022/02/22 01:02:44;;;;;;;2.750001;1.6;;;;;;;2.63;79.16211;94893.27;;;;
2022/02/22 01:03:45;;;;;;;3.5;1.65;;;;;;;2.82;79.0918;94904.57;;;;
2022/02/22 01:04:46;;;;;;;3.5;1.65;;;;;;;2.82;79.0918;94904.57;;;;
2022/02/22 01:05:46;;;;;;;3.5;1.65;;;;;;;2.82;79.0918;94904.57;;;;
2022/02/22 01:06:47;;;;;;;3.5;1.65;;;;;;;2.82;79.0918;94904.57;;;;
2022/02/22 01:07:47;;;;;;;3.5;1.65;;;;;;;2.82;79.0918;94904.57;;;;
2022/02/22 01:08:48;;;;;;;3.5;1.65;;;;;;;2.82;79.0918;94904.57;;;;
2022/02/22 01:09:48;;;;;;;3.5;1.65;;;;;;;2.82;79.0918;94904.57;;;;
2022/02/22 01:10:49;;;;;;;3.5;1.65;;;;;;;2.82;79.0918;94904.57;;;;
2022/02/22 01:11:50;;;;;;;3.5;1.65;;;;;;;2.82;79.0918;94904.57;;;;
2022/02/22 01:12:50;;;;;;;3.5;1.65;;;;;;;2.82;79.0918;94904.57;;;;
2022/02/22 01:13:51;;;;;;;2.35;1.35;;;;;;;3.01;79.05176;94908.31;;;;
2022/02/22 01:14:51;;;;;;;2.35;1.35;;;;;;;3.01;79.05176;94908.31;;;;
2022/02/22 01:15:52;;;;;;;2.35;1.35;;;;;;;3.01;79.05176;94908.31;;;;
2022/02/22 01:16:53;;;;;;;2.35;1.35;;;;;;;3.01;79.05176;94908.31;;;;
2022/02/22 01:17:53;;;;;;;2.35;1.35;;;;;;;3.01;79.05176;94908.31;;;;
2022/02/22 01:18:54;;;;;;;2.35;1.35;;;;;;;3.01;79.05176;94908.31;;;;
2022/02/22 01:19:54;;;;;;;2.35;1.35;;;;;;;3.01;79.05176;94908.31;;;;
2022/02/22 01:20:55;;;;;;;2.35;1.35;;;;;;;3.01;79.05176;94908.31;;;;
2022/02/22 01:21:55;;;;;;;2.35;1.35;;;;;;;3.01;79.05176;94908.31;;;;
2022/02/22 01:22:56;;;;;;;2.35;1.35;;;;;;;3.01;79.05176;94908.31;;;;
2022/02/22 01:23:57;;;;;;;2.35;1.35;;;;;;;3.01;79.05176;94908.31;;;;
2022/02/22 01:24:58;;;;;;;3.75;1.6;;;;;;;3.07;78.84473;94900.78;;;;
2022/02/22 01:26:00;;;;;;;3.75;1.6;;;;;;;3.07;78.84473;94900.78;;;;
2022/02/22 01:27:00;;;;;;;3.75;1.6;;;;;;;3.07;78.84473;94900.78;;;;
2022/02/22 01:28:01;;;;;;;3.75;1.6;;;;;;;3.07;78.84473;94900.78;;;;
2022/02/22 01:29:02;;;;;;;3.75;1.6;;;;;;;3.07;78.84473;94900.78;;;;
2022/02/22 01:30:03;;;;;;;3.75;1.6;;;;;;;3.07;78.84473;94900.78;;;;
2022/02/22 01:31:06;;;;;;;3.75;1.6;;;;;;;3.07;78.84473;94900.78;;;;
2022/02/22 01:32:07;;;;;;;3.75;1.6;;;;;;;3.07;78.84473;94900.78;;;;
2022/02/22 01:33:08;;;;;;;3.75;1.6;;;;;;;3.07;78.84473;94900.78;;;;
2022/02/22 01:34:09;;;;;;;3.75;1.6;;;;;;;3.07;78.84473;94900.78;;;;
2022/02/22 01:35:10;;;;;;;3.55;1.55;;;;;;;3.19;79.18066;94917.92;;;;
2022/02/22 01:36:11;;;;;;;3.55;1.55;;;;;;;3.19;79.18066;94917.92;;;;
2022/02/22 01:37:11;;;;;;;3.55;1.55;;;;;;;3.19;79.18066;94917.92;;;;
2022/02/22 01:38:12;;;;;;;3.55;1.55;;;;;;;3.19;79.18066;94917.92;;;;
2022/02/22 01:39:12;;;;;;;3.55;1.55;;;;;;;3.19;79.18066;94917.92;;;;
2022/02/22 01:40:13;;;;;;;3.55;1.55;;;;;;;3.19;79.18066;94917.92;;;;
2022/02/22 01:41:13;;;;;;;3.55;1.55;;;;;;;3.19;79.18066;94917.92;;;;
2022/02/22 01:42:14;;;;;;;3.55;1.55;;;;;;;3.19;79.18066;94917.92;;;;
2022/02/22 01:43:15;;;;;;;3.55;1.55;;;;;;;3.19;79.18066;94917.92;;;;
2022/02/22 01:44:15;;;;;;;3.55;1.55;;;;;;;3.19;79.18066;94917.92;;;;
2022/02/22 01:45:19;;;;;;;3.55;1.55;;;;;;;3.19;79.18066;94917.92;;;;
2022/02/22 01:46:21;;;;;;;3.55;1.5;;;;;;;3.35;79.3252;94918.4;;;;
2022/02/22 01:47:22;;;;;;;3.55;1.5;;;;;;;3.35;79.3252;94918.4;;;;
2022/02/22 01:48:23;;;;;;;3.55;1.5;;;;;;;3.35;79.3252;94918.4;;;;
2022/02/22 01:49:24;;;;;;;3.55;1.5;;;;;;;3.35;79.3252;94918.4;;;;
2022/02/22 01:50:26;;;;;;;3.55;1.5;;;;;;;3.35;79.3252;94918.4;;;;
2022/02/22 01:51:26;;;;;;;3.55;1.5;;;;;;;3.35;79.3252;94918.4;;;;
2022/02/22 01:52:27;;;;;;;3.55;1.5;;;;;;;3.35;79.3252;94918.4;;;;
2022/02/22 01:53:27;;;;;;;3.55;1.5;;;;;;;3.35;79.3252;94918.4;;;;
2022/02/22 01:54:28;;;;;;;3.55;1.5;;;;;;;3.35;79.3252;94918.4;;;;
2022/02/22 01:55:29;;;;;;;3.55;1.5;;;;;;;3.35;79.3252;94918.4;;;;
2022/02/22 01:56:30;;;;;;;3.55;1.5;;;;;;;3.35;79.3252;94918.4;;;;
2022/02/22 01:57:31;;;;;;;3.55;1.5;;;;;;;3.35;79.3252;94918.4;;;;
2022/02/22 01:58:32;;;;;;;3.55;1.5;;;;;;;3.35;79.3252;94918.4;;;;
2022/02/22 01:59:32;;;;;;;3.55;1.5;;;;;;;3.35;79.3252;94918.4;;;;
2022/02/22 02:00:33;;;;;;;3.55;1.5;;;;;;;3.35;79.3252;94918.4;;;;
2022/02/22 02:01:33;;;;;;;3.55;1.5;;;;;;;3.35;79.3252;94918.4;;;;
2022/02/22 02:02:35;;;;;;;3.55;1.5;;;;;;;3.35;79.3252;94918.4;;;;
2022/02/22 02:03:36;;;;;;;3.55;1.5;;;;;;;3.35;79.3252;94918.4;;;;
2022/02/22 02:04:37;;;;;;;3.55;1.5;;;;;;;3.35;79.3252;94918.4;;;;
2022/02/22 02:05:37;;;;;;;3.55;1.5;;;;;;;3.35;79.3252;94918.4;;;;
2022/02/22 02:06:38;;;;;;;3.55;1.5;;;;;;;3.35;79.3252;94918.4;;;;
2022/02/22 02:07:39;;;;;;;4.25;1.65;;;;;;;3.71;79.22559;94933.58;;;;
2022/02/22 02:08:39;;;;;;;4.25;1.65;;;;;;;3.71;79.22559;94933.58;;;;
2022/02/22 02:09:40;;;;;;;4.25;1.65;;;;;;;3.71;79.22559;94933.58;;;;
2022/02/22 02:10:40;;;;;;;4.25;1.65;;;;;;;3.71;79.22559;94933.58;;;;
2022/02/22 02:11:41;;;;;;;4.25;1.65;;;;;;;3.71;79.22559;94933.58;;;;
2022/02/22 02:12:43;;;;;;;4.25;1.65;;;;;;;3.71;79.22559;94933.58;;;;
2022/02/22 02:13:45;;;;;;;4.25;1.65;;;;;;;3.71;79.22559;94933.58;;;;
2022/02/22 02:14:45;;;;;;;4.25;1.65;;;;;;;3.71;79.22559;94933.58;;;;
2022/02/22 02:15:45;;;;;;;4.25;1.65;;;;;;;3.71;79.22559;94933.58;;;;
2022/02/22 02:16:46;;;;;;;4.25;1.65;;;;;;;3.71;79.22559;94933.58;;;;
2022/02/22 02:17:47;;;;;;;5.45;1.6;;;;;;;3.8;79.10254;94945.81;;;;
2022/02/22 02:18:47;;;;;;;5.45;1.6;;;;;;;3.8;79.10254;94945.81;;;;
2022/02/22 02:19:48;;;;;;;5.45;1.6;;;;;;;3.8;79.10254;94945.81;;;;
2022/02/22 02:20:48;;;;;;;5.45;1.6;;;;;;;3.8;79.10254;94945.81;;;;
2022/02/22 02:21:49;;;;;;;5.45;1.6;;;;;;;3.8;79.10254;94945.81;;;;
2022/02/22 02:22:50;;;;;;;5.45;1.6;;;;;;;3.8;79.10254;94945.81;;;;
2022/02/22 02:23:51;;;;;;;5.45;1.6;;;;;;;3.8;79.10254;94945.81;;;;
2022/02/22 02:24:51;;;;;;;5.45;1.6;;;;;;;3.8;79.10254;94945.81;;;;
2022/02/22 02:25:52;;;;;;;5.45;1.6;;;;;;;3.8;79.10254;94945.81;;;;
2022/02/22 02:26:52;;;;;;;5.45;1.6;;;;;;;3.8;79.10254;94945.81;;;;
2022/02/22 02:27:55;;;;;;;5.45;1.6;;;;;;;3.8;79.10254;94945.81;;;;
2022/02/22 02:28:55;;;;;;;6.499999;1.6;;;;;;;3.95;79.11035;94950.87;;;;
2022/02/22 02:29:59;;;;;;;6.499999;1.6;;;;;;;3.95;79.11035;94950.87;;;;
2022/02/22 02:31:00;;;;;;;6.499999;1.6;;;;;;;3.95;79.11035;94950.87;;;;
2022/02/22 02:32:00;;;;;;;6.499999;1.6;;;;;;;3.95;79.11035;94950.87;;;;
2022/02/22 02:33:01;;;;;;;6.499999;1.6;;;;;;;3.95;79.11035;94950.87;;;;
2022/02/22 02:34:01;;;;;;;6.499999;1.6;;;;;;;3.95;79.11035;94950.87;;;;
2022/02/22 02:35:03;;;;;;;6.499999;1.6;;;;;;;3.95;79.11035;94950.87;;;;
2022/02/22 02:36:05;;;;;;;6.499999;1.6;;;;;;;3.95;79.11035;94950.87;;;;
2022/02/22 02:37:06;;;;;;;6.499999;1.6;;;;;;;3.95;79.11035;94950.87;;;;
2022/02/22 02:38:06;;;;;;;6.499999;1.6;;;;;;;3.95;79.11035;94950.87;;;;
2022/02/22 02:39:07;;;;;;;2.9;1.7;;;;;;;4.04;78.63184;94951.9;;;;
2022/02/22 02:40:09;;;;;;;2.9;1.7;;;;;;;4.04;78.63184;94951.9;;;;
2022/02/22 02:41:10;;;;;;;2.9;1.7;;;;;;;4.04;78.63184;94951.9;;;;
2022/02/22 02:42:11;;;;;;;2.9;1.7;;;;;;;4.04;78.63184;94951.9;;;;
2022/02/22 02:43:11;;;;;;;2.9;1.7;;;;;;;4.04;78.63184;94951.9;;;;
2022/02/22 02:44:12;;;;;;;2.9;1.7;;;;;;;4.04;78.63184;94951.9;;;;
2022/02/22 02:45:14;;;;;;;2.9;1.7;;;;;;;4.04;78.63184;94951.9;;;;
2022/02/22 02:46:15;;;;;;;2.9;1.7;;;;;;;4.04;78.63184;94951.9;;;;
2022/02/22 02:47:15;;;;;;;2.9;1.7;;;;;;;4.04;78.63184;94951.9;;;;
2022/02/22 02:48:16;;;;;;;2.9;1.7;;;;;;;4.04;78.63184;94951.9;;;;
2022/02/22 02:49:17;;;;;;;2.9;1.7;;;;;;;4.04;78.63184;94951.9;;;;
2022/02/22 02:50:18;;;;;;;4.5;1.8;;;;;;;4.05;78.47559;94960.63;;;;
2022/02/22 02:51:19;;;;;;;4.5;1.8;;;;;;;4.05;78.47559;94960.63;;;;
2022/02/22 02:52:20;;;;;;;4.5;1.8;;;;;;;4.05;78.47559;94960.63;;;;
2022/02/22 02:53:20;;;;;;;4.5;1.8;;;;;;;4.05;78.47559;94960.63;;;;
2022/02/22 02:54:21;;;;;;;4.5;1.8;;;;;;;4.05;78.47559;94960.63;;;;
2022/02/22 02:55:21;;;;;;;4.5;1.8;;;;;;;4.05;78.47559;94960.63;;;;
2022/02/22 02:56:24;;;;;;;4.5;1.8;;;;;;;4.05;78.47559;94960.63;;;;
2022/02/22 02:57:26;;;;;;;4.5;1.8;;;;;;;4.05;78.47559;94960.63;;;;
2022/02/22 02:58:27;;;;;;;4.5;1.8;;;;;;;4.05;78.47559;94960.63;;;;
2022/02/22 02:59:27;;;;;;;4.5;1.8;;;;;;;4.05;78.47559;94960.63;;;;
2022/02/22 03:00:28;;;;;;;6.9;1.65;;;;;;;4.03;78.46191;94996.08;;;;
2022/02/22 03:01:29;;;;;;;6.9;1.65;;;;;;;4.03;78.46191;94996.08;;;;
2022/02/22 03:02:31;;;;;;;6.9;1.65;;;;;;;4.03;78.46191;94996.08;;;;
2022/02/22 03:03:32;;;;;;;6.9;1.65;;;;;;;4.03;78.46191;94996.08;;;;
2022/02/22 03:04:32;;;;;;;6.9;1.65;;;;;;;4.03;78.46191;94996.08;;;;
2022/02/22 03:05:33;;;;;;;6.9;1.65;;;;;;;4.03;78.46191;94996.08;;;;
2022/02/22 03:06:33;;;;;;;6.9;1.65;;;;;;;4.03;78.46191;94996.08;;;;
2022/02/22 03:07:34;;;;;;;6.9;1.65;;;;;;;4.03;78.46191;94996.08;;;;
2022/02/22 03:08:35;;;;;;;6.9;1.65;;;;;;;4.03;78.46191;94996.08;;;;
2022/02/22 03:09:35;;;;;;;6.9;1.65;;;;;;;4.03;78.46191;94996.08;;;;
2022/02/22 03:10:36;;;;;;;6.9;1.65;;;;;;;4.03;78.46191;94996.08;;;;
2022/02/22 03:11:36;;;;;;;6.9;1.65;;;;;;;4.03;78.46191;94996.08;;;;
2022/02/22 03:12:37;;;;;;;6.9;1.65;;;;;;;4.03;78.46191;94996.08;;;;
2022/02/22 03:13:37;;;;;;;6.9;1.65;;;;;;;4.03;78.46191;94996.08;;;;
2022/02/22 03:14:39;;;;;;;6.9;1.65;;;;;;;4.03;78.46191;94996.08;;;;
2022/02/22 03:15:39;;;;;;;6.9;1.65;;;;;;;4.03;78.46191;94996.08;;;;
2022/02/22 03:16:40;;;;;;;6.9;1.65;;;;;;;4.03;78.46191;94996.08;;;;
2022/02/22 03:17:41;;;;;;;6.9;1.65;;;;;;;4.03;78.46191;94996.08;;;;
2022/02/22 03:18:42;;;;;;;6.9;1.65;;;;;;;4.03;78.46191;94996.08;;;;
2022/02/22 03:19:43;;;;;;;6.9;1.65;;;;;;;4.03;78.46191;94996.08;;;;
2022/02/22 03:20:44;;;;;;;6.9;1.65;;;;;;;4.03;78.46191;94996.08;;;;
2022/02/22 03:21:44;;;;;;;6.9;1.65;;;;;;;4.03;78.46191;94996.08;;;;
2022/02/22 03:22:45;;;;;;;4.9;1.9;;;;;;;3.88;78.54102;95012.8;;;;
2022/02/22 03:23:45;;;;;;;4.9;1.9;;;;;;;3.88;78.54102;95012.8;;;;
2022/02/22 03:24:48;;;;;;;4.9;1.9;;;;;;;3.88;78.54102;95012.8;;;;
2022/02/22 03:25:48;;;;;;;4.9;1.9;;;;;;;3.88;78.54102;95012.8;;;;
2022/02/22 03:26:50;;;;;;;4.9;1.9;;;;;;;3.88;78.54102;95012.8;;;;
2022/02/22 03:27:51;;;;;;;4.9;1.9;;;;;;;3.88;78.54102;95012.8;;;;
2022/02/22 03:28:51;;;;;;;4.9;1.9;;;;;;;3.88;78.54102;95012.8;;;;
2022/02/22 03:29:52;;;;;;;4.9;1.9;;;;;;;3.88;78.54102;95012.8;;;;
2022/02/22 03:30:52;;;;;;;4.9;1.9;;;;;;;3.88;78.54102;95012.8;;;;
2022/02/22 03:31:53;;;;;;;4.9;1.9;;;;;;;3.88;78.54102;95012.8;;;;
2022/02/22 03:32:54;;;;;;;4.55;2.05;;;;;;;3.8;78.41016;95043.67;;;;
2022/02/22 03:33:54;;;;;;;4.55;2.05;;;;;;;3.8;78.41016;95043.67;;;;
2022/02/22 03:34:55;;;;;;;4.55;2.05;;;;;;;3.8;78.41016;95043.67;;;;
2022/02/22 03:35:56;;;;;;;4.55;2.05;;;;;;;3.8;78.41016;95043.67;;;;
2022/02/22 03:36:56;;;;;;;4.55;2.05;;;;;;;3.8;78.41016;95043.67;;;;
2022/02/22 03:37:57;;;;;;;4.55;2.05;;;;;;;3.8;78.41016;95043.67;;;;
2022/02/22 03:38:57;;;;;;;4.55;2.05;;;;;;;3.8;78.41016;95043.67;;;;
2022/02/22 03:39:58;;;;;;;4.55;2.05;;;;;;;3.8;78.41016;95043.67;;;;
2022/02/22 03:40:58;;;;;;;4.55;2.05;;;;;;;3.8;78.41016;95043.67;;;;
2022/02/22 03:41:59;;;;;;;4.55;2.05;;;;;;;3.8;78.41016;95043.67;;;;
2022/02/22 03:43:00;;;;;;;4.55;2.05;;;;;;;3.8;78.41016;95043.67;;;;
2022/02/22 03:44:00;;;;;;;3.6;1.8;;;;;;;3.83;78.41504;95052.23;;;;
2022/02/22 03:45:01;;;;;;;3.6;1.8;;;;;;;3.83;78.41504;95052.23;;;;
2022/02/22 03:46:02;;;;;;;3.6;1.8;;;;;;;3.83;78.41504;95052.23;;;;
2022/02/22 03:47:02;;;;;;;3.6;1.8;;;;;;;3.83;78.41504;95052.23;;;;
2022/02/22 03:48:03;;;;;;;3.6;1.8;;;;;;;3.83;78.41504;95052.23;;;;
2022/02/22 03:49:05;;;;;;;3.6;1.8;;;;;;;3.83;78.41504;95052.23;;;;
2022/02/22 03:50:05;;;;;;;3.6;1.8;;;;;;;3.83;78.41504;95052.23;;;;
2022/02/22 03:51:07;;;;;;;3.6;1.8;;;;;;;3.83;78.41504;95052.23;;;;
2022/02/22 03:52:08;;;;;;;3.6;1.8;;;;;;;3.83;78.41504;95052.23;;;;
2022/02/22 03:53:08;;;;;;;3.6;1.8;;;;;;;3.83;78.41504;95052.23;;;;
2022/02/22 03:54:09;;;;;;;4.7;1.75;;;;;;;3.8;78.13477;95087.32;;;;
2022/02/22 03:55:09;;;;;;;4.7;1.75;;;;;;;3.8;78.13477;95087.32;;;;
2022/02/22 03:56:11;;;;;;;4.7;1.75;;;;;;;3.8;78.13477;95087.32;;;;
2022/02/22 03:57:12;;;;;;;4.7;1.75;;;;;;;3.8;78.13477;95087.32;;;;
2022/02/22 03:58:12;;;;;;;4.7;1.75;;;;;;;3.8;78.13477;95087.32;;;;
2022/02/22 03:59:13;;;;;;;4.7;1.75;;;;;;;3.8;78.13477;95087.32;;;;
2022/02/22 04:00:14;;;;;;;4.7;1.75;;;;;;;3.8;78.13477;95087.32;;;;
2022/02/22 04:01:17;;;;;;;4.7;1.75;;;;;;;3.8;78.13477;95087.32;;;;
2022/02/22 04:02:18;;;;;;;4.7;1.75;;;;;;;3.8;78.13477;95087.32;;;;
2022/02/22 04:03:18;;;;;;;4.7;1.75;;;;;;;3.8;78.13477;95087.32;;;;
2022/02/22 04:04:19;;;;;;;4.7;1.75;;;;;;;3.8;78.13477;95087.32;;;;
2022/02/22 04:05:20;;;;;;;4.45;1.35;;;;;;;3.68;77.91406;95119.12;;;;
2022/02/22 04:06:22;;;;;;;4.45;1.35;;;;;;;3.68;77.91406;95119.12;;;;
2022/02/22 04:07:22;;;;;;;4.45;1.35;;;;;;;3.68;77.91406;95119.12;;;;
2022/02/22 04:08:23;;;;;;;4.45;1.35;;;;;;;3.68;77.91406;95119.12;;;;
2022/02/22 04:09:23;;;;;;;4.45;1.35;;;;;;;3.68;77.91406;95119.12;;;;
2022/02/22 04:10:24;;;;;;;4.45;1.35;;;;;;;3.68;77.91406;95119.12;;;;
2022/02/22 04:11:25;;;;;;;4.45;1.35;;;;;;;3.68;77.91406;95119.12;;;;
2022/02/22 04:12:25;;;;;;;4.45;1.35;;;;;;;3.68;77.91406;95119.12;;;;
2022/02/22 04:13:26;;;;;;;4.45;1.35;;;;;;;3.68;77.91406;95119.12;;;;
2022/02/22 04:14:26;;;;;;;4.45;1.35;;;;;;;3.68;77.91406;95119.12;;;;
2022/02/22 04:15:27;;;;;;;3.95;1.8;;;;;;;3.49;77.82715;95141.16;;;;
2022/02/22 04:16:27;;;;;;;3.95;1.8;;;;;;;3.49;77.82715;95141.16;;;;
2022/02/22 04:17:28;;;;;;;3.95;1.8;;;;;;;3.49;77.82715;95141.16;;;;
2022/02/22 04:18:28;;;;;;;3.95;1.8;;;;;;;3.49;77.82715;95141.16;;;;
2022/02/22 04:19:29;;;;;;;3.95;1.8;;;;;;;3.49;77.82715;95141.16;;;;
2022/02/22 04:20:29;;;;;;;3.95;1.8;;;;;;;3.49;77.82715;95141.16;;;;
2022/02/22 04:21:30;;;;;;;3.95;1.8;;;;;;;3.49;77.82715;95141.16;;;;
2022/02/22 04:22:30;;;;;;;3.95;1.8;;;;;;;3.49;77.82715;95141.16;;;;
2022/02/22 04:23:31;;;;;;;3.95;1.8;;;;;;;3.49;77.82715;95141.16;;;;
2022/02/22 04:24:32;;;;;;;3.95;1.8;;;;;;;3.49;77.82715;95141.16;;;;
2022/02/22 04:25:32;;;;;;;3.95;1.8;;;;;;;3.49;77.82715;95141.16;;;;
2022/02/22 04:26:33;;;;;;;5.5;1.55;;;;;;;3.35;77.98047;95148.77;;;;
2022/02/22 04:27:33;;;;;;;5.5;1.55;;;;;;;3.35;77.98047;95148.77;;;;
2022/02/22 04:28:35;;;;;;;5.5;1.55;;;;;;;3.35;77.98047;95148.77;;;;
2022/02/22 04:29:36;;;;;;;5.5;1.55;;;;;;;3.35;77.98047;95148.77;;;;
2022/02/22 04:30:36;;;;;;;5.5;1.55;;;;;;;3.35;77.98047;95148.77;;;;
2022/02/22 04:31:38;;;;;;;5.5;1.55;;;;;;;3.35;77.98047;95148.77;;;;
2022/02/22 04:32:39;;;;;;;5.5;1.55;;;;;;;3.35;77.98047;95148.77;;;;
2022/02/22 04:33:39;;;;;;;5.5;1.55;;;;;;;3.35;77.98047;95148.77;;;;
2022/02/22 04:34:40;;;;;;;5.5;1.55;;;;;;;3.35;77.98047;95148.77;;;;
2022/02/22 04:35:40;;;;;;;5.5;1.55;;;;;;;3.35;77.98047;95148.77;;;;
2022/02/22 04:36:41;;;;;;;4.15;1.6;;;;;;;3.4;77.80176;95192.13;;;;
2022/02/22 04:37:41;;;;;;;4.15;1.6;;;;;;;3.4;77.80176;95192.13;;;;
2022/02/22 04:38:42;;;;;;;4.15;1.6;;;;;;;3.4;77.80176;95192.13;;;;
2022/02/22 04:39:42;;;;;;;4.15;1.6;;;;;;;3.4;77.80176;95192.13;;;;
2022/02/22 04:40:43;;;;;;;4.15;1.6;;;;;;;3.4;77.80176;95192.13;;;;
2022/02/22 04:41:44;;;;;;;4.15;1.6;;;;;;;3.4;77.80176;95192.13;;;;
2022/02/22 04:42:48;;;;;;;4.15;1.6;;;;;;;3.4;77.80176;95192.13;;;;
2022/02/22 04:43:49;;;;;;;4.15;1.6;;;;;;;3.4;77.80176;95192.13;;;;
2022/02/22 04:44:49;;;;;;;4.15;1.6;;;;;;;3.4;77.80176;95192.13;;;;
2022/02/22 04:45:51;;;;;;;4.15;1.6;;;;;;;3.4;77.80176;95192.13;;;;
2022/02/22 04:46:52;;;;;;;4.15;1.6;;;;;;;3.4;77.80176;95192.13;;;;
2022/02/22 04:47:55;;;;;;;7.45;1.85;;;;;;;3.34;77.47461;95191.58;;;;
2022/02/22 04:48:56;;;;;;;7.45;1.85;;;;;;;3.34;77.47461;95191.58;;;;
2022/02/22 04:49:56;;;;;;;7.45;1.85;;;;;;;3.34;77.47461;95191.58;;;;
2022/02/22 04:50:57;;;;;;;7.45;1.85;;;;;;;3.34;77.47461;95191.58;;;;
2022/02/22 04:51:58;;;;;;;7.45;1.85;;;;;;;3.34;77.47461;95191.58;;;;
2022/02/22 04:52:59;;;;;;;7.45;1.85;;;;;;;3.34;77.47461;95191.58;;;;
2022/02/22 04:53:59;;;;;;;7.45;1.85;;;;;;;3.34;77.47461;95191.58;;;;
2022/02/22 04:55:01;;;;;;;7.45;1.85;;;;;;;3.34;77.47461;95191.58;;;;
2022/02/22 04:56:02;;;;;;;7.45;1.85;;;;;;;3.34;77.47461;95191.58;;;;
2022/02/22 04:57:03;;;;;;;7.45;1.85;;;;;;;3.34;77.47461;95191.58;;;;
2022/02/22 04:58:04;;;;;;;5.15;1.7;;;;;;;3.36;77.44824;95214.9;;;;
2022/02/22 04:59:05;;;;;;;5.15;1.7;;;;;;;3.36;77.44824;95214.9;;;;
2022/02/22 05:00:05;;;;;;;5.15;1.7;;;;;;;3.36;77.44824;95214.9;;;;
2022/02/22 05:01:10;;;;;;;5.15;1.7;;;;;;;3.36;77.44824;95214.9;;;;
2022/02/22 05:02:10;;;;;;;5.15;1.7;;;;;;;3.36;77.44824;95214.9;;;;
2022/02/22 05:03:11;;;;;;;5.15;1.7;;;;;;;3.36;77.44824;95214.9;;;;
2022/02/22 05:04:11;;;;;;;5.15;1.7;;;;;;;3.36;77.44824;95214.9;;;;
2022/02/22 05:05:12;;;;;;;5.15;1.7;;;;;;;3.36;77.44824;95214.9;;;;
2022/02/22 05:06:12;;;;;;;5.15;1.7;;;;;;;3.36;77.44824;95214.9;;;;
2022/02/22 05:07:13;;;;;;;5.15;1.7;;;;;;;3.36;77.44824;95214.9;;;;
2022/02/22 05:08:13;;;;;;;5.15;1.7;;;;;;;3.36;77.44824;95214.9;;;;
2022/02/22 05:09:13;;;;;;;3.95;1.35;;;;;;;3.29;77.28711;95215.86;;;;
2022/02/22 05:10:14;;;;;;;3.95;1.35;;;;;;;3.29;77.28711;95215.86;;;;
2022/02/22 05:11:14;;;;;;;3.95;1.35;;;;;;;3.29;77.28711;95215.86;;;;
2022/02/22 05:12:15;;;;;;;3.95;1.35;;;;;;;3.29;77.28711;95215.86;;;;
2022/02/22 05:13:15;;;;;;;3.95;1.35;;;;;;;3.29;77.28711;95215.86;;;;
2022/02/22 05:14:16;;;;;;;3.95;1.35;;;;;;;3.29;77.28711;95215.86;;;;
2022/02/22 05:15:17;;;;;;;3.95;1.35;;;;;;;3.29;77.28711;95215.86;;;;
2022/02/22 05:16:17;;;;;;;3.95;1.35;;;;;;;3.29;77.28711;95215.86;;;;
2022/02/22 05:17:18;;;;;;;3.95;1.35;;;;;;;3.29;77.28711;95215.86;;;;
2022/02/22 05:18:18;;;;;;;3.95;1.35;;;;;;;3.29;77.28711;95215.86;;;;
2022/02/22 05:19:20;;;;;;;6.550001;1.5;;;;;;;3.38;77.10449;95232.46;;;;
2022/02/22 05:20:20;;;;;;;6.550001;1.5;;;;;;;3.38;77.10449;95232.46;;;;
2022/02/22 05:21:21;;;;;;;6.550001;1.5;;;;;;;3.38;77.10449;95232.46;;;;
2022/02/22 05:22:21;;;;;;;6.550001;1.5;;;;;;;3.38;77.10449;95232.46;;;;
2022/02/22 05:23:22;;;;;;;6.550001;1.5;;;;;;;3.38;77.10449;95232.46;;;;
2022/02/22 05:24:24;;;;;;;6.550001;1.5;;;;;;;3.38;77.10449;95232.46;;;;
2022/02/22 05:25:24;;;;;;;6.550001;1.5;;;;;;;3.38;77.10449;95232.46;;;;
2022/02/22 05:26:25;;;;;;;6.550001;1.5;;;;;;;3.38;77.10449;95232.46;;;;
2022/02/22 05:27:25;;;;;;;6.550001;1.5;;;;;;;3.38;77.10449;95232.46;;;;
2022/02/22 05:28:26;;;;;;;6.550001;1.5;;;;;;;3.38;77.10449;95232.46;;;;
2022/02/22 05:29:26;;;;;;;6.550001;1.5;;;;;;;3.38;77.10449;95232.46;;;;
2022/02/22 05:30:27;;;;;;;3.9;1.3;;;;;;;3.35;76.96973;95304.03;;;;
2022/02/22 05:31:27;;;;;;;3.9;1.3;;;;;;;3.35;76.96973;95304.03;;;;
2022/02/22 05:32:28;;;;;;;3.9;1.3;;;;;;;3.35;76.96973;95304.03;;;;
2022/02/22 05:33:29;;;;;;;3.9;1.3;;;;;;;3.35;76.96973;95304.03;;;;
2022/02/22 05:34:30;;;;;;;3.9;1.3;;;;;;;3.35;76.96973;95304.03;;;;
2022/02/22 05:35:33;;;;;;;3.9;1.3;;;;;;;3.35;76.96973;95304.03;;;;
2022/02/22 05:36:34;;;;;;;3.9;1.3;;;;;;;3.35;76.96973;95304.03;;;;
2022/02/22 05:37:35;;;;;;;3.9;1.3;;;;;;;3.35;76.96973;95304.03;;;;
2022/02/22 05:38:36;;;;;;;3.9;1.3;;;;;;;3.35;76.96973;95304.03;;;;
2022/02/22 05:39:37;;;;;;;3.9;1.3;;;;;;;3.35;76.96973;95304.03;;;;
2022/02/22 05:40:37;;;;;;;4.7;1.5;;;;;;;2.78;76.99609;95311.16;;;;
2022/02/22 05:41:38;;;;;;;4.7;1.5;;;;;;;2.78;76.99609;95311.16;;;;
2022/02/22 05:42:38;;;;;;;4.7;1.5;;;;;;;2.78;76.99609;95311.16;;;;
2022/02/22 05:43:39;;;;;;;4.7;1.5;;;;;;;2.78;76.99609;95311.16;;;;
2022/02/22 05:44:40;;;;;;;4.7;1.5;;;;;;;2.78;76.99609;95311.16;;;;
2022/02/22 05:45:40;;;;;;;4.7;1.5;;;;;;;2.78;76.99609;95311.16;;;;
2022/02/22 05:46:41;;;;;;;4.7;1.5;;;;;;;2.78;76.99609;95311.16;;;;
2022/02/22 05:47:41;;;;;;;4.7;1.5;;;;;;;2.78;76.99609;95311.16;;;;
2022/02/22 05:48:42;;;;;;;4.7;1.5;;;;;;;2.78;76.99609;95311.16;;;;
2022/02/22 05:49:42;;;;;;;4.7;1.5;;;;;;;2.78;76.99609;95311.16;;;;
2022/02/22 05:50:43;;;;;;;4.7;1.5;;;;;;;2.78;76.99609;95311.16;;;;
2022/02/22 05:51:44;;;;;;;6.099999;1.4;;;;;;;2.22;77.92188;95295.47;;;;
2022/02/22 05:52:45;;;;;;;6.099999;1.4;;;;;;;2.22;77.92188;95295.47;;;;
2022/02/22 05:53:48;;;;;;;6.099999;1.4;;;;;;;2.22;77.92188;95295.47;;;;
2022/02/22 05:54:48;;;;;;;6.099999;1.4;;;;;;;2.22;77.92188;95295.47;;;;